Airfield :







YOU CAN JOIN US ON...

 
LOGIN :

Register | Disclaimer

   EN    FR    IT 

 









Legend :    VFR   Marginal VFR   IFR   Intensive IFR   Very Intensive IFR
Visi :
Ceiling :
>= 8 km
>= 3000ft
5 to 8 km
1000 to 3000 ft
1500m to 5 km
500 to 1000 ft
800 to 1500m
200 to 500 ft
< 800m
< 200 ft
Symbols :   Thunderstorms  Fog  Heavy snow  Heavy precipitations  Wind > 20 kt






- Airport Elevation : 555 ft


KORE - Orange Municipal

CURRENT METAR :
  • 041552Z AUTO 04005KT 10SM BKN026 10/03 A3004 RMK AO2 SLP175 T01000033

EXPIRED METARs :
  • 041452Z AUTO 05007KT 10SM OVC020 08/03 A3006 RMK AO2 SLP183 T00780028 53012
  • 041418Z AUTO 05008KT 10SM OVC018 07/03 A3006 RMK AO2 T00720033
  • 041411Z AUTO 01006KT 10SM OVC014 07/04 A3006 RMK AO2 T00720039
  • 041359Z AUTO 02006KT 10SM OVC016 07/03 A3006 RMK AO2 T00670033
  • 041316Z AUTO 02008KT 10SM OVC015 07/03 A3004 RMK AO2 T00670033

TAF N/A



MET'MAP, your aeronautical weather chart ! - Copyright ORBIFLY December 2007 - Disclaimer

ORBIFLY MET'MAP TEAM :

Programming & Development : Alexandra Zaïnal
Concept & original design : Baudouin d'Aumeries
Assistance for programming : Marc-Olivier Méhu
Technical & hardware support : Manuel Goepfert

Contact : metmap@orbifly.com




SOURCES & CREDITS :

   NOAA